Time;durP1;ratioP1;P1;durP2;ratioP2;P2;SDS_P1;SDS_P2;PMS_P1;PMS_P2;Temp;Humidity;BMP_temperature;BMP_pressure;BME280_temperature;BME280_humidity;BME280_pressure;Samples;Min_cycle;Max_cycle;Signal;HPM_P1;HPM_P2
2023/05/05 00:00:02;;;;;;;;;6.00;6.00;;;;;;;;119911;1182;24815;-59
2023/05/05 00:02:50;;;;;;;;;5.00;5.00;;;;;;;;119903;1190;25127;-58
2023/05/05 00:05:19;;;;;;;;;7.50;5.25;;;;;;;;119917;1182;25300;-58
2023/05/05 00:07:47;;;;;;;;;7.33;5.33;;;;;;;;119930;1181;25380;-58
2023/05/05 00:10:16;;;;;;;;;8.00;6.00;;;;;;;;119903;1181;24792;-58
2023/05/05 00:12:44;;;;;;;;;5.25;5.25;;;;;;;;119911;1190;24776;-58
2023/05/05 00:15:12;;;;;;;;;8.00;6.00;;;;;;;;119930;1182;25629;-58
2023/05/05 00:17:40;;;;;;;;;6.00;5.00;;;;;;;;119905;1190;25613;-58
2023/05/05 00:20:09;;;;;;;;;5.00;4.00;;;;;;;;119901;1190;24795;-58
2023/05/05 00:22:37;;;;;;;;;8.00;6.00;;;;;;;;119935;1181;25216;-58
2023/05/05 00:25:06;;;;;;;;;6.25;5.50;;;;;;;;119909;1190;25221;-58
2023/05/05 00:27:34;;;;;;;;;5.00;5.00;;;;;;;;119933;1190;25606;-58
2023/05/05 00:30:05;;;;;;;;;10.33;7.00;;;;;;;;119907;1182;25129;-58
2023/05/05 00:32:34;;;;;;;;;7.25;6.25;;;;;;;;119917;1190;24888;-58
2023/05/05 00:35:02;;;;;;;;;6.25;6.00;;;;;;;;119925;1190;24869;-58
2023/05/05 00:37:30;;;;;;;;;7.25;6.00;;;;;;;;119970;1182;24852;-58
2023/05/05 00:39:59;;;;;;;;;6.33;6.00;;;;;;;;119901;1190;24706;-58
2023/05/05 00:42:37;;;;;;;;;5.00;4.50;;;;;;;;119889;1190;25362;-58
2023/05/05 00:45:06;;;;;;;;;3.50;3.50;;;;;;;;119916;1190;24769;-58
2023/05/05 00:47:35;;;;;;;;;7.67;5.33;;;;;;;;119940;1182;25352;-58
2023/05/05 00:50:06;;;;;;;;;5.00;5.00;;;;;;;;119910;1191;25464;-57
2023/05/05 00:52:36;;;;;;;;;5.33;5.33;;;;;;;;119786;1191;25535;-58
2023/05/05 00:55:05;;;;;;;;;6.33;6.00;;;;;;;;119865;1191;25499;-58
2023/05/05 00:57:34;;;;;;;;;6.00;5.00;;;;;;;;119903;1187;24914;-58
2023/05/05 01:00:04;;;;;;;;;7.25;5.25;;;;;;;;119895;1182;25391;-58
2023/05/05 01:02:33;;;;;;;;;7.00;5.00;;;;;;;;119929;1191;25387;-58
2023/05/05 01:05:02;;;;;;;;;9.25;6.25;;;;;;;;119928;1191;25349;-58
2023/05/05 01:07:42;;;;;;;;;4.75;4.75;;;;;;;;119840;1183;25551;-58
2023/05/05 01:10:24;;;;;;;;;5.33;4.67;;;;;;;;119933;1191;24883;-58
2023/05/05 01:12:56;;;;;;;;;7.75;6.25;;;;;;;;119911;1191;24729;-58
2023/05/05 01:15:32;;;;;;;;;7.50;5.50;;;;;;;;119912;1186;25423;-59
2023/05/05 01:18:05;;;;;;;;;7.00;6.00;;;;;;;;119948;1182;24933;-58
2023/05/05 01:20:40;;;;;;;;;5.00;4.67;;;;;;;;119899;1187;25587;-58
2023/05/05 01:23:11;;;;;;;;;5.25;4.50;;;;;;;;119935;1190;25049;-59
2023/05/05 01:26:07;;;;;;;;;6.50;5.50;;;;;;;;119874;1190;25564;-58
2023/05/05 01:28:49;;;;;;;;;5.00;5.00;;;;;;;;119888;1190;24915;-58
2023/05/05 01:31:33;;;;;;;;;4.00;4.00;;;;;;;;119942;1190;24911;-59
2023/05/05 01:34:05;;;;;;;;;6.25;6.25;;;;;;;;119914;1190;25581;-58
2023/05/05 01:36:41;;;;;;;;;4.00;4.00;;;;;;;;119722;1190;24732;-58
2023/05/05 01:39:13;;;;;;;;;5.00;5.00;;;;;;;;119907;1190;25426;-58
2023/05/05 01:41:47;;;;;;;;;5.67;5.33;;;;;;;;119900;1190;24726;-58
2023/05/05 01:44:17;;;;;;;;;7.67;5.00;;;;;;;;119894;1190;24817;-58
2023/05/05 01:46:47;;;;;;;;;5.25;5.25;;;;;;;;119757;1190;25570;-58
2023/05/05 01:49:15;;;;;;;;;7.00;6.00;;;;;;;;119898;1182;25434;-59
2023/05/05 01:51:45;;;;;;;;;5.00;4.00;;;;;;;;119875;1190;25073;-58
2023/05/05 01:54:14;;;;;;;;;6.00;4.00;;;;;;;;119886;1191;24729;-58
2023/05/05 01:56:43;;;;;;;;;4.00;3.00;;;;;;;;119890;1191;25203;-59
2023/05/05 01:59:12;;;;;;;;;5.75;4.75;;;;;;;;119905;1182;25635;-58
2023/05/05 02:01:43;;;;;;;;;5.00;4.00;;;;;;;;119742;1188;25609;-59
2023/05/05 02:04:13;;;;;;;;;7.00;4.00;;;;;;;;119911;1182;25085;-58
2023/05/05 02:06:42;;;;;;;;;5.50;5.50;;;;;;;;119893;1191;25665;-59
2023/05/05 02:09:12;;;;;;;;;4.50;4.50;;;;;;;;119895;1182;25545;-58
2023/05/05 02:11:40;;;;;;;;;4.33;4.33;;;;;;;;119907;1191;25981;-58
2023/05/05 02:14:10;;;;;;;;;5.00;4.00;;;;;;;;119882;1191;24970;-58
2023/05/05 02:16:40;;;;;;;;;3.50;3.50;;;;;;;;119891;1191;24821;-58
2023/05/05 02:19:08;;;;;;;;;8.00;6.50;;;;;;;;119757;1189;25101;-58
2023/05/05 02:21:36;;;;;;;;;4.00;4.00;;;;;;;;119737;1191;25389;-58
2023/05/05 02:24:05;;;;;;;;;4.00;4.00;;;;;;;;119908;1182;25182;-58
2023/05/05 02:26:43;;;;;;;;;5.00;4.75;;;;;;;;119919;1182;25238;-58
2023/05/05 02:29:17;;;;;;;;;4.75;4.75;;;;;;;;119906;1191;24998;-58
2023/05/05 02:31:51;;;;;;;;;4.67;4.67;;;;;;;;119904;1191;24767;-58
2023/05/05 02:34:25;;;;;;;;;6.00;6.00;;;;;;;;119894;1191;25652;-59
2023/05/05 02:36:56;;;;;;;;;6.50;5.50;;;;;;;;119713;1191;25559;-58
2023/05/05 02:39:30;;;;;;;;;5.00;4.00;;;;;;;;119893;1187;25526;-58
2023/05/05 02:42:04;;;;;;;;;5.50;5.50;;;;;;;;119900;1191;25652;-58
2023/05/05 02:44:33;;;;;;;;;4.00;4.00;;;;;;;;119887;1191;25399;-60
2023/05/05 02:47:05;;;;;;;;;4.50;4.00;;;;;;;;119883;1182;25656;-58
2023/05/05 02:49:34;;;;;;;;;5.50;5.25;;;;;;;;119926;1182;24979;-58
2023/05/05 02:52:02;;;;;;;;;6.25;5.25;;;;;;;;119925;1190;25293;-57
2023/05/05 02:54:31;;;;;;;;;4.00;4.00;;;;;;;;119943;1190;25120;-58
2023/05/05 02:56:59;;;;;;;;;5.50;5.50;;;;;;;;119891;1190;25519;-58
2023/05/05 02:59:48;;;;;;;;;5.75;5.75;;;;;;;;119923;1182;25269;-58
2023/05/05 03:02:38;;;;;;;;;8.00;4.00;;;;;;;;119906;1190;25487;-58
2023/05/05 03:05:12;;;;;;;;;5.00;5.00;;;;;;;;119910;1187;25202;-58
2023/05/05 03:08:01;;;;;;;;;5.25;4.75;;;;;;;;119932;1191;25513;-58
2023/05/05 03:10:34;;;;;;;;;6.00;5.00;;;;;;;;119778;1191;24978;-58
2023/05/05 03:13:06;;;;;;;;;6.00;4.25;;;;;;;;119786;1183;26214;-58
2023/05/05 03:15:40;;;;;;;;;5.00;5.00;;;;;;;;119878;1191;24840;-58
2023/05/05 03:18:09;;;;;;;;;4.67;4.67;;;;;;;;119897;1191;24832;-58
2023/05/05 03:20:39;;;;;;;;;4.67;4.67;;;;;;;;119771;1183;24961;-58
2023/05/05 03:23:07;;;;;;;;;5.50;5.50;;;;;;;;119714;1190;25241;-59
2023/05/05 03:25:42;;;;;;;;;5.00;4.00;;;;;;;;119839;1182;24732;-59
2023/05/05 03:28:11;;;;;;;;;4.75;4.50;;;;;;;;119924;1190;25134;-59
2023/05/05 03:30:40;;;;;;;;;4.25;3.75;;;;;;;;119918;1186;25232;-59
2023/05/05 03:33:11;;;;;;;;;2.50;2.50;;;;;;;;119902;1190;25503;-59
2023/05/05 03:35:39;;;;;;;;;4.00;4.00;;;;;;;;119894;1182;25674;-60
2023/05/05 03:38:08;;;;;;;;;6.33;4.00;;;;;;;;119958;1182;25554;-59
2023/05/05 03:40:36;;;;;;;;;8.00;5.00;;;;;;;;119893;1190;24898;-59
2023/05/05 03:43:11;;;;;;;;;7.75;4.75;;;;;;;;119903;1190;25651;-60
2023/05/05 03:45:39;;;;;;;;;6.25;5.00;;;;;;;;119951;1182;25574;-60
2023/05/05 03:48:08;;;;;;;;;7.00;5.00;;;;;;;;119905;1191;26420;-59
2023/05/05 03:50:37;;;;;;;;;4.33;4.33;;;;;;;;119911;1182;25157;-59
2023/05/05 03:53:05;;;;;;;;;4.00;4.00;;;;;;;;119877;1190;25421;-59
2023/05/05 03:55:33;;;;;;;;;4.00;4.00;;;;;;;;119896;1191;24987;-59
2023/05/05 03:58:02;;;;;;;;;4.00;4.00;;;;;;;;120128;1186;25643;-59
2023/05/05 04:00:30;;;;;;;;;5.00;5.00;;;;;;;;119907;1190;25145;-60
2023/05/05 04:02:58;;;;;;;;;4.00;3.00;;;;;;;;119904;1190;25089;-59
2023/05/05 04:05:27;;;;;;;;;6.00;5.00;;;;;;;;119844;1183;25002;-59
2023/05/05 04:07:56;;;;;;;;;8.00;4.00;;;;;;;;119855;1191;24870;-59
2023/05/05 04:10:24;;;;;;;;;6.67;5.33;;;;;;;;119909;1191;25334;-60
2023/05/05 04:12:53;;;;;;;;;6.50;6.00;;;;;;;;119915;1177;25618;-59
2023/05/05 04:15:21;;;;;;;;;5.33;5.00;;;;;;;;119898;1190;24884;-59
2023/05/05 04:17:49;;;;;;;;;8.50;4.50;;;;;;;;119987;1186;25701;-59
2023/05/05 04:20:18;;;;;;;;;7.00;6.00;;;;;;;;120000;1181;24834;-59
2023/05/05 04:22:46;;;;;;;;;6.25;5.25;;;;;;;;119888;1190;25475;-59
2023/05/05 04:25:15;;;;;;;;;11.33;5.67;;;;;;;;120009;1186;25336;-59
2023/05/05 04:27:43;;;;;;;;;5.00;3.00;;;;;;;;119943;1186;24995;-59
2023/05/05 04:30:12;;;;;;;;;6.67;4.00;;;;;;;;119933;1190;25011;-59
2023/05/05 04:32:40;;;;;;;;;6.50;3.25;;;;;;;;119936;1182;25852;-60
2023/05/05 04:35:11;;;;;;;;;7.25;6.25;;;;;;;;119980;1186;25628;-60
2023/05/05 04:37:40;;;;;;;;;4.33;3.33;;;;;;;;119887;1189;24920;-59
2023/05/05 04:40:08;;;;;;;;;7.00;5.00;;;;;;;;119912;1190;24715;-59
2023/05/05 04:42:37;;;;;;;;;6.00;3.50;;;;;;;;119918;1182;25190;-60
2023/05/05 04:45:06;;;;;;;;;8.50;4.25;;;;;;;;119827;1190;24908;-59
2023/05/05 04:47:37;;;;;;;;;10.33;7.00;;;;;;;;119911;1190;25370;-60
2023/05/05 04:50:07;;;;;;;;;7.75;5.50;;;;;;;;119887;1187;25613;-59
2023/05/05 04:52:36;;;;;;;;;5.00;4.00;;;;;;;;119950;1181;24903;-59
2023/05/05 04:55:05;;;;;;;;;3.00;2.33;;;;;;;;119913;1190;24893;-59
2023/05/05 04:57:33;;;;;;;;;5.50;3.00;;;;;;;;119958;1186;25112;-59
2023/05/05 05:00:04;;;;;;;;;4.50;3.50;;;;;;;;119894;1191;25206;-59
2023/05/05 05:02:32;;;;;;;;;4.33;3.00;;;;;;;;119862;1190;24963;-59
2023/05/05 05:05:01;;;;;;;;;6.67;6.00;;;;;;;;119948;1186;25506;-59
2023/05/05 05:07:29;;;;;;;;;4.33;4.33;;;;;;;;119903;1186;25077;-59
2023/05/05 05:09:58;;;;;;;;;5.50;4.00;;;;;;;;119967;1186;25128;-59
2023/05/05 05:12:26;;;;;;;;;5.00;5.00;;;;;;;;119900;1190;24795;-59
2023/05/05 05:14:54;;;;;;;;;5.67;3.67;;;;;;;;119912;1190;26081;-59
2023/05/05 05:17:23;;;;;;;;;4.50;4.50;;;;;;;;119918;1190;25257;-59
2023/05/05 05:19:54;;;;;;;;;8.67;5.33;;;;;;;;119914;1190;25029;-60
2023/05/05 05:22:22;;;;;;;;;3.25;3.00;;;;;;;;120018;1181;25442;-59
2023/05/05 05:24:51;;;;;;;;;5.50;5.00;;;;;;;;119980;1186;24769;-59
2023/05/05 05:27:19;;;;;;;;;5.33;3.00;;;;;;;;119921;1182;25576;-59
2023/05/05 05:29:47;;;;;;;;;6.00;4.75;;;;;;;;119915;1182;24976;-59
2023/05/05 05:32:15;;;;;;;;;3.25;2.75;;;;;;;;119926;1190;25644;-59
2023/05/05 05:34:44;;;;;;;;;7.75;5.00;;;;;;;;119905;1190;25128;-61
2023/05/05 05:37:12;;;;;;;;;5.00;2.50;;;;;;;;119940;1186;24970;-61
2023/05/05 05:39:40;;;;;;;;;4.00;3.00;;;;;;;;119887;1190;25306;-61
2023/05/05 05:42:10;;;;;;;;;7.25;5.25;;;;;;;;119888;1190;24738;-62
2023/05/05 05:44:38;;;;;;;;;3.67;3.67;;;;;;;;119910;1186;25015;-63
2023/05/05 05:47:07;;;;;;;;;6.00;4.00;;;;;;;;119951;1186;25488;-62
2023/05/05 05:49:35;;;;;;;;;6.00;4.33;;;;;;;;119904;1182;25305;-61
2023/05/05 05:52:04;;;;;;;;;3.50;3.50;;;;;;;;119946;1177;25580;-61
2023/05/05 05:54:34;;;;;;;;;5.75;3.50;;;;;;;;119904;1190;25104;-63
2023/05/05 05:57:03;;;;;;;;;7.33;5.00;;;;;;;;119897;1190;25759;-64
2023/05/05 05:59:31;;;;;;;;;8.25;2.50;;;;;;;;119913;1190;25291;-65
2023/05/05 06:02:00;;;;;;;;;8.50;5.50;;;;;;;;119929;1190;25037;-65
2023/05/05 06:04:30;;;;;;;;;8.00;8.00;;;;;;;;119993;1186;25647;-65
2023/05/05 06:06:58;;;;;;;;;7.75;7.25;;;;;;;;119890;1190;26496;-63
2023/05/05 06:09:26;;;;;;;;;5.50;4.00;;;;;;;;119941;1182;25572;-60
2023/05/05 06:11:55;;;;;;;;;10.00;6.00;;;;;;;;119932;1190;25268;-60
2023/05/05 06:14:23;;;;;;;;;6.50;6.00;;;;;;;;119882;1190;25292;-64
2023/05/05 06:16:51;;;;;;;;;5.00;3.67;;;;;;;;119916;1188;25428;-64
2023/05/05 06:19:20;;;;;;;;;8.67;5.67;;;;;;;;119939;1190;25189;-61
2023/05/05 06:21:48;;;;;;;;;5.00;3.50;;;;;;;;119912;1181;25599;-62
2023/05/05 06:24:16;;;;;;;;;5.00;5.00;;;;;;;;119911;1190;25047;-67
2023/05/05 06:26:45;;;;;;;;;6.00;5.00;;;;;;;;119929;1190;25203;-66
2023/05/05 06:29:13;;;;;;;;;4.67;4.00;;;;;;;;119935;1181;25483;-72
2023/05/05 06:31:41;;;;;;;;;8.50;6.75;;;;;;;;119904;1190;24734;-68
2023/05/05 06:34:10;;;;;;;;;9.50;6.50;;;;;;;;119911;1190;25600;-67
2023/05/05 06:36:38;;;;;;;;;8.00;4.33;;;;;;;;119895;1182;25219;-68
2023/05/05 06:39:06;;;;;;;;;6.00;5.25;;;;;;;;119901;1190;25055;-68
2023/05/05 06:41:35;;;;;;;;;5.50;5.50;;;;;;;;119894;1190;25537;-65
2023/05/05 06:44:03;;;;;;;;;5.50;4.50;;;;;;;;119898;1182;25020;-65
2023/05/05 06:46:32;;;;;;;;;5.00;3.00;;;;;;;;119917;1190;25553;-64
2023/05/05 06:49:02;;;;;;;;;7.00;5.00;;;;;;;;119844;1190;25158;-66
2023/05/05 06:51:30;;;;;;;;;6.50;5.75;;;;;;;;119907;1190;25651;-66
2023/05/05 06:53:59;;;;;;;;;5.33;5.33;;;;;;;;119923;1190;24989;-66
2023/05/05 06:56:27;;;;;;;;;9.50;6.00;;;;;;;;119961;1182;25266;-65
2023/05/05 06:58:55;;;;;;;;;4.75;4.00;;;;;;;;119907;1190;25192;-65
2023/05/05 07:01:23;;;;;;;;;4.33;4.33;;;;;;;;119896;1177;25535;-65
2023/05/05 07:03:52;;;;;;;;;7.00;4.00;;;;;;;;119732;1183;25311;-65
2023/05/05 07:06:20;;;;;;;;;8.50;5.00;;;;;;;;119906;1190;25504;-66
2023/05/05 07:08:49;;;;;;;;;8.33;5.00;;;;;;;;119920;1190;25231;-65
2023/05/05 07:11:17;;;;;;;;;6.00;5.00;;;;;;;;119910;1190;24912;-65
2023/05/05 07:13:48;;;;;;;;;6.75;3.75;;;;;;;;119929;1186;26481;-65
2023/05/05 07:16:16;;;;;;;;;24.00;24.00;;;;;;;;119925;1186;25170;-65
2023/05/05 07:18:44;;;;;;;;;77.75;67.75;;;;;;;;119966;1177;25446;-65
2023/05/05 07:21:21;;;;;;;;;68.50;51.25;;;;;;;;119904;1186;25207;-65
2023/05/05 07:23:49;;;;;;;;;55.33;44.33;;;;;;;;119912;1190;25519;-66
2023/05/05 07:26:18;;;;;;;;;51.00;41.00;;;;;;;;119911;1186;25410;-66
2023/05/05 07:28:46;;;;;;;;;45.33;35.33;;;;;;;;119935;1178;24780;-65
2023/05/05 07:31:15;;;;;;;;;38.00;33.00;;;;;;;;119932;1178;25343;-65
2023/05/05 07:33:43;;;;;;;;;43.33;34.67;;;;;;;;119933;1186;25609;-63
2023/05/05 07:36:11;;;;;;;;;40.00;30.00;;;;;;;;119920;1181;25949;-62
2023/05/05 07:38:39;;;;;;;;;35.00;29.50;;;;;;;;119879;1177;25288;-64
2023/05/05 07:41:10;;;;;;;;;35.33;30.00;;;;;;;;119882;1186;25431;-63
2023/05/05 07:43:42;;;;;;;;;29.50;27.50;;;;;;;;119923;1190;24877;-63
2023/05/05 07:46:12;;;;;;;;;24.33;24.00;;;;;;;;119900;1190;25746;-63
2023/05/05 07:48:41;;;;;;;;;28.50;27.50;;;;;;;;119915;1186;25085;-64
2023/05/05 07:51:09;;;;;;;;;36.00;30.50;;;;;;;;119926;1186;25255;-64
2023/05/05 07:53:38;;;;;;;;;29.50;28.00;;;;;;;;119868;1190;25032;-63
2023/05/05 07:56:07;;;;;;;;;29.00;24.33;;;;;;;;119904;1190;25408;-63
2023/05/05 07:58:36;;;;;;;;;22.00;19.00;;;;;;;;119916;1186;25339;-64
2023/05/05 08:01:05;;;;;;;;;29.50;24.25;;;;;;;;119894;1186;25412;-63
2023/05/05 08:03:33;;;;;;;;;22.00;22.00;;;;;;;;119898;1190;26222;-65
2023/05/05 08:06:08;;;;;;;;;24.75;24.50;;;;;;;;119928;1182;24826;-67
2023/05/05 08:08:36;;;;;;;;;29.50;25.75;;;;;;;;119939;1190;25387;-69
2023/05/05 08:11:05;;;;;;;;;22.00;21.00;;;;;;;;119866;1190;25227;-64
2023/05/05 08:13:33;;;;;;;;;25.75;20.75;;;;;;;;119942;1182;25531;-65
2023/05/05 08:16:02;;;;;;;;;16.67;15.00;;;;;;;;119934;1182;25500;-64
2023/05/05 08:18:30;;;;;;;;;25.00;19.67;;;;;;;;119881;1187;25549;-65
2023/05/05 08:20:59;;;;;;;;;21.75;20.25;;;;;;;;119933;1177;25386;-67
2023/05/05 08:23:27;;;;;;;;;22.67;20.33;;;;;;;;119902;1190;25554;-65
2023/05/05 08:25:55;;;;;;;;;23.25;19.75;;;;;;;;119935;1182;25418;-63
2023/05/05 08:28:23;;;;;;;;;17.00;16.25;;;;;;;;119916;1182;24965;-62
2023/05/05 08:30:52;;;;;;;;;15.25;15.25;;;;;;;;119899;1190;25553;-63
2023/05/05 08:33:20;;;;;;;;;23.00;18.00;;;;;;;;119913;1190;24804;-65
2023/05/05 08:35:48;;;;;;;;;19.00;16.00;;;;;;;;119932;1182;25369;-64
2023/05/05 08:38:17;;;;;;;;;18.67;15.33;;;;;;;;119917;1190;26651;-65
2023/05/05 08:40:46;;;;;;;;;18.50;14.00;;;;;;;;119909;1190;25495;-64
2023/05/05 08:43:14;;;;;;;;;17.50;16.75;;;;;;;;119906;1181;25423;-64
2023/05/05 08:45:43;;;;;;;;;20.75;19.50;;;;;;;;119904;1186;25352;-64
2023/05/05 08:48:12;;;;;;;;;23.00;19.00;;;;;;;;119883;1190;25172;-64
2023/05/05 08:50:44;;;;;;;;;18.67;17.00;;;;;;;;119915;1190;24984;-64
2023/05/05 08:53:16;;;;;;;;;19.25;18.25;;;;;;;;119964;1183;25636;-64
2023/05/05 08:55:50;;;;;;;;;18.25;14.50;;;;;;;;119908;1186;25530;-65
2023/05/05 08:58:21;;;;;;;;;19.50;14.75;;;;;;;;119903;1190;25422;-66
2023/05/05 09:00:50;;;;;;;;;15.50;13.75;;;;;;;;119890;1190;25381;-63
2023/05/05 09:03:18;;;;;;;;;18.00;15.50;;;;;;;;119883;1187;25580;-63
2023/05/05 09:05:46;;;;;;;;;15.00;14.50;;;;;;;;119945;1186;25524;-63
2023/05/05 09:08:15;;;;;;;;;13.67;13.67;;;;;;;;119882;1182;24713;-62
2023/05/05 09:10:43;;;;;;;;;19.33;16.00;;;;;;;;119913;1183;25360;-62
2023/05/05 09:13:12;;;;;;;;;17.00;16.75;;;;;;;;119913;1182;25652;-63
2023/05/05 09:15:55;;;;;;;;;15.33;14.67;;;;;;;;119952;1177;25560;-62
2023/05/05 09:18:24;;;;;;;;;12.67;12.67;;;;;;;;119920;1190;25537;-62
2023/05/05 09:20:53;;;;;;;;;14.75;13.50;;;;;;;;119900;1182;24829;-63
2023/05/05 09:23:21;;;;;;;;;15.00;12.00;;;;;;;;119921;1181;25724;-63
2023/05/05 09:26:04;;;;;;;;;16.25;14.75;;;;;;;;119876;1190;24990;-62
2023/05/05 09:28:33;;;;;;;;;12.00;12.00;;;;;;;;119932;1182;24734;-63
2023/05/05 09:31:12;;;;;;;;;16.00;13.00;;;;;;;;119719;1190;24802;-64
2023/05/05 09:33:41;;;;;;;;;15.50;11.00;;;;;;;;119914;1191;25301;-66
2023/05/05 09:36:10;;;;;;;;;18.33;15.33;;;;;;;;119769;1190;25542;-78
2023/05/05 09:38:38;;;;;;;;;17.33;13.00;;;;;;;;119882;1190;25531;-66
2023/05/05 09:41:07;;;;;;;;;13.00;12.00;;;;;;;;119879;1186;25048;-66
2023/05/05 09:43:50;;;;;;;;;9.33;8.33;;;;;;;;119895;1190;25822;-66
2023/05/05 09:46:19;;;;;;;;;11.00;11.00;;;;;;;;119886;1190;25913;-66
2023/05/05 09:48:48;;;;;;;;;12.67;10.33;;;;;;;;119866;1186;25198;-65
2023/05/05 09:51:27;;;;;;;;;13.75;11.00;;;;;;;;119889;1182;24917;-65
2023/05/05 09:53:56;;;;;;;;;15.75;11.25;;;;;;;;119923;1186;24919;-65
2023/05/05 09:56:37;;;;;;;;;10.00;10.00;;;;;;;;119912;1186;24898;-66
2023/05/05 09:59:10;;;;;;;;;12.25;11.50;;;;;;;;119889;1186;25654;-64
2023/05/05 10:01:42;;;;;;;;;9.75;9.00;;;;;;;;119892;1186;24813;-66
2023/05/05 10:04:31;;;;;;;;;12.50;12.00;;;;;;;;119888;1181;24935;-68
2023/05/05 10:06:59;;;;;;;;;12.00;10.75;;;;;;;;119855;1182;25275;-69
2023/05/05 10:09:30;;;;;;;;;14.00;13.00;;;;;;;;119860;1191;24839;-70
2023/05/05 10:12:02;;;;;;;;;10.50;10.00;;;;;;;;119643;1191;25004;-72
2023/05/05 10:14:31;;;;;;;;;16.67;15.33;;;;;;;;119735;1180;25550;-68
2023/05/05 10:17:00;;;;;;;;;29.50;23.25;;;;;;;;119909;1182;25419;-70
2023/05/05 10:19:33;;;;;;;;;27.00;23.00;;;;;;;;119752;1183;25300;-71
2023/05/05 10:22:07;;;;;;;;;31.67;28.00;;;;;;;;119694;1179;26213;-70
2023/05/05 10:24:39;;;;;;;;;23.75;22.50;;;;;;;;119902;1187;25303;-70
2023/05/05 10:27:27;;;;;;;;;28.00;27.67;;;;;;;;119732;1188;25028;-69
2023/05/05 10:30:06;;;;;;;;;19.75;17.75;;;;;;;;119734;1183;25299;-75
2023/05/05 10:32:47;;;;;;;;;27.75;23.50;;;;;;;;119721;1187;25346;-71
2023/05/05 10:35:32;;;;;;;;;28.50;25.50;;;;;;;;119762;1183;25022;-69
2023/05/05 10:38:01;;;;;;;;;19.00;18.00;;;;;;;;119710;1185;25191;-67
2023/05/05 10:40:30;;;;;;;;;23.50;20.50;;;;;;;;119904;1182;25346;-68
2023/05/05 10:42:58;;;;;;;;;23.50;20.75;;;;;;;;119875;1191;25610;-67
2023/05/05 10:45:27;;;;;;;;;22.25;17.00;;;;;;;;119691;1191;25461;-78
2023/05/05 10:47:58;;;;;;;;;25.00;21.50;;;;;;;;119719;1191;25654;-69
2023/05/05 10:50:31;;;;;;;;;26.00;20.00;;;;;;;;119663;1191;24888;-66
2023/05/05 10:53:12;;;;;;;;;20.00;16.67;;;;;;;;119773;1179;25612;-68
2023/05/05 10:55:49;;;;;;;;;19.00;18.00;;;;;;;;119721;1179;24777;-66
2023/05/05 10:58:41;;;;;;;;;16.00;15.00;;;;;;;;119863;1182;25677;-64
2023/05/05 11:01:33;;;;;;;;;19.50;17.00;;;;;;;;119884;1179;25710;-65
2023/05/05 11:04:22;;;;;;;;;22.67;18.00;;;;;;;;119677;1187;24766;-64
2023/05/05 11:07:20;;;;;;;;;19.25;18.50;;;;;;;;119895;1187;25472;-63
2023/05/05 11:09:56;;;;;;;;;18.00;17.00;;;;;;;;119655;1184;25681;-64
2023/05/05 11:12:25;;;;;;;;;16.50;16.50;;;;;;;;119647;1185;24789;-63
2023/05/05 11:15:27;;;;;;;;;21.00;16.00;;;;;;;;119906;1187;25221;-63
2023/05/05 11:18:01;;;;;;;;;18.50;17.50;;;;;;;;119898;1187;24687;-64
2023/05/05 11:20:34;;;;;;;;;18.67;15.67;;;;;;;;119743;1179;25602;-62
2023/05/05 11:23:02;;;;;;;;;15.25;14.75;;;;;;;;119891;1191;25400;-65
2023/05/05 11:25:33;;;;;;;;;19.00;17.00;;;;;;;;119900;1191;25509;-62
2023/05/05 11:28:13;;;;;;;;;18.50;15.50;;;;;;;;119921;1182;25491;-65
2023/05/05 11:30:53;;;;;;;;;14.00;14.00;;;;;;;;119705;1191;25261;-63
2023/05/05 11:33:32;;;;;;;;;16.00;16.00;;;;;;;;119919;1178;24715;-64
2023/05/05 11:36:00;;;;;;;;;19.50;14.00;;;;;;;;119713;1191;25606;-67
2023/05/05 11:38:55;;;;;;;;;19.33;16.33;;;;;;;;119905;1191;24994;-66
2023/05/05 11:41:32;;;;;;;;;17.00;13.33;;;;;;;;119716;1183;25234;-63
2023/05/05 11:44:28;;;;;;;;;16.00;14.67;;;;;;;;119893;1182;26402;-64
2023/05/05 11:46:56;;;;;;;;;14.00;13.00;;;;;;;;119709;1187;25342;-64
2023/05/05 11:53:08;;;;;;;;;14.00;14.00;;;;;;;;116161;1199;24312;-63
2023/05/05 11:55:36;;;;;;;;;17.50;15.75;;;;;;;;117117;1184;23449;-66
2023/05/05 11:58:17;;;;;;;;;9.00;8.00;;;;;;;;117324;1183;24729;-66
2023/05/05 12:00:46;;;;;;;;;16.50;13.50;;;;;;;;117286;1183;24742;-65
2023/05/05 12:03:15;;;;;;;;;15.67;13.00;;;;;;;;117341;1189;25114;-65
2023/05/05 12:05:45;;;;;;;;;14.67;12.00;;;;;;;;117180;1185;25274;-66
2023/05/05 12:08:13;;;;;;;;;13.25;13.00;;;;;;;;117314;1183;25713;-66
2023/05/05 12:10:42;;;;;;;;;13.00;10.00;;;;;;;;117072;1186;25148;-63
2023/05/05 12:13:20;;;;;;;;;12.25;12.25;;;;;;;;117092;1189;25197;-66
2023/05/05 12:15:49;;;;;;;;;12.50;12.50;;;;;;;;117155;1186;25383;-66
2023/05/05 12:18:19;;;;;;;;;12.25;11.50;;;;;;;;117300;1184;25282;-66
2023/05/05 12:20:47;;;;;;;;;12.25;10.50;;;;;;;;117290;1184;25435;-73
2023/05/05 12:23:16;;;;;;;;;12.67;11.67;;;;;;;;117316;1191;25165;-72
2023/05/05 12:25:45;;;;;;;;;18.00;14.00;;;;;;;;117440;1182;25511;-71
2023/05/05 12:28:13;;;;;;;;;15.00;12.50;;;;;;;;117419;1194;24986;-71
2023/05/05 12:30:42;;;;;;;;;12.33;10.33;;;;;;;;117414;1189;25608;-70
2023/05/05 12:33:10;;;;;;;;;10.00;9.67;;;;;;;;117414;1182;25358;-71
2023/05/05 12:35:40;;;;;;;;;13.00;13.00;;;;;;;;117397;1183;25324;-71
2023/05/05 12:38:08;;;;;;;;;12.25;10.50;;;;;;;;117376;1194;25062;-68
2023/05/05 12:40:51;;;;;;;;;11.33;11.33;;;;;;;;117386;1184;25211;-71
2023/05/05 12:43:31;;;;;;;;;12.00;11.50;;;;;;;;117356;1183;25212;-71
2023/05/05 12:46:05;;;;;;;;;12.75;10.50;;;;;;;;117424;1184;25193;-73
2023/05/05 12:48:36;;;;;;;;;11.00;11.00;;;;;;;;117373;1182;25329;-74
2023/05/05 12:51:19;;;;;;;;;9.75;8.00;;;;;;;;117366;1184;25031;-71
2023/05/05 12:53:59;;;;;;;;;11.00;9.00;;;;;;;;117399;1190;25229;-70
2023/05/05 12:56:47;;;;;;;;;10.00;10.00;;;;;;;;117380;1182;25500;-70
2023/05/05 12:59:21;;;;;;;;;15.67;11.00;;;;;;;;117436;1182;25158;-69
2023/05/05 13:01:51;;;;;;;;;10.33;10.33;;;;;;;;117395;1194;25101;-71
2023/05/05 13:04:22;;;;;;;;;11.00;10.00;;;;;;;;117451;1194;25224;-69
2023/05/05 13:07:10;;;;;;;;;11.33;10.00;;;;;;;;117396;1183;24767;-71
2023/05/05 13:09:38;;;;;;;;;10.75;9.00;;;;;;;;117404;1194;25541;-70
2023/05/05 13:12:10;;;;;;;;;13.33;9.67;;;;;;;;117369;1183;25276;-70
2023/05/05 13:14:40;;;;;;;;;12.75;10.25;;;;;;;;117417;1194;25257;-70
2023/05/05 13:17:12;;;;;;;;;13.25;9.00;;;;;;;;117387;1183;25173;-68
2023/05/05 13:19:41;;;;;;;;;9.00;8.33;;;;;;;;117367;1183;25545;-68
2023/05/05 13:22:09;;;;;;;;;11.00;11.00;;;;;;;;117422;1194;25637;-68
2023/05/05 13:24:38;;;;;;;;;9.50;8.00;;;;;;;;117410;1194;25510;-67
2023/05/05 13:27:19;;;;;;;;;8.00;7.00;;;;;;;;117443;1187;25118;-67
2023/05/05 13:29:48;;;;;;;;;12.50;10.50;;;;;;;;117395;1190;24877;-67
2023/05/05 13:32:16;;;;;;;;;10.50;7.50;;;;;;;;117435;1183;25695;-68
2023/05/05 13:34:45;;;;;;;;;10.33;8.67;;;;;;;;117418;1182;25536;-67
2023/05/05 13:37:14;;;;;;;;;12.33;10.33;;;;;;;;117385;1194;25357;-67
2023/05/05 13:39:42;;;;;;;;;8.25;7.25;;;;;;;;117364;1184;24744;-67
2023/05/05 13:42:11;;;;;;;;;11.00;9.50;;;;;;;;117339;1186;25093;-67
2023/05/05 13:44:39;;;;;;;;;10.00;9.00;;;;;;;;117402;1183;25478;-68
2023/05/05 13:47:08;;;;;;;;;13.00;11.67;;;;;;;;117404;1181;24880;-68
2023/05/05 13:49:36;;;;;;;;;10.00;8.00;;;;;;;;117428;1183;25206;-69
2023/05/05 13:52:05;;;;;;;;;10.25;8.00;;;;;;;;117389;1183;24759;-66
2023/05/05 13:54:33;;;;;;;;;8.00;7.75;;;;;;;;117437;1183;25376;-65
2023/05/05 13:57:02;;;;;;;;;10.75;8.00;;;;;;;;117353;1183;26459;-67
2023/05/05 13:59:30;;;;;;;;;10.75;9.00;;;;;;;;117392;1183;25335;-72
2023/05/05 14:02:00;;;;;;;;;9.00;7.25;;;;;;;;117397;1184;25260;-71
2023/05/05 14:04:28;;;;;;;;;11.33;8.00;;;;;;;;117440;1194;25561;-72
2023/05/05 14:06:57;;;;;;;;;10.00;10.00;;;;;;;;117416;1182;24816;-69
2023/05/05 14:09:25;;;;;;;;;9.00;9.00;;;;;;;;117373;1183;26062;-68
2023/05/05 14:11:54;;;;;;;;;8.00;7.50;;;;;;;;117353;1181;25701;-69
2023/05/05 14:14:22;;;;;;;;;9.00;7.00;;;;;;;;117355;1183;24955;-69
2023/05/05 14:16:51;;;;;;;;;10.00;9.50;;;;;;;;117381;1184;25630;-68
2023/05/05 14:19:19;;;;;;;;;8.00;6.00;;;;;;;;117343;1194;25443;-68
2023/05/05 14:21:48;;;;;;;;;10.00;10.00;;;;;;;;117290;1182;25436;-69
2023/05/05 14:24:16;;;;;;;;;9.50;8.00;;;;;;;;117348;1182;25555;-70
2023/05/05 14:26:45;;;;;;;;;10.67;8.33;;;;;;;;117768;1191;25539;-67
2023/05/05 14:29:13;;;;;;;;;11.00;11.00;;;;;;;;117417;1184;25415;-67
2023/05/05 14:31:42;;;;;;;;;9.00;9.00;;;;;;;;117729;1180;24780;-69
2023/05/05 14:34:11;;;;;;;;;9.50;8.50;;;;;;;;117783;1181;25656;-80
2023/05/05 14:36:40;;;;;;;;;8.00;8.00;;;;;;;;117753;1192;25224;-73
2023/05/05 14:39:08;;;;;;;;;7.67;7.67;;;;;;;;117758;1180;24915;-69
2023/05/05 14:41:36;;;;;;;;;9.50;8.75;;;;;;;;117792;1179;25666;-67
2023/05/05 14:44:05;;;;;;;;;8.00;8.00;;;;;;;;117819;1189;24922;-71